sensor_id;sensor_type;location;lat;lon;timestamp;P1;durP1;ratioP1;P2;durP2;ratioP2
47796;SDS011;33558;50.922;14.068;2022-11-21T00:00:24;52.10;;;26.03;;
47796;SDS011;33558;50.922;14.068;2022-11-21T00:02:51;59.83;;;28.47;;
47796;SDS011;33558;50.922;14.068;2022-11-21T00:05:18;52.67;;;26.67;;
47796;SDS011;33558;50.922;14.068;2022-11-21T00:07:45;57.67;;;26.40;;
47796;SDS011;33558;50.922;14.068;2022-11-21T00:10:14;59.87;;;28.97;;
47796;SDS011;33558;50.922;14.068;2022-11-21T00:12:41;53.87;;;25.90;;
47796;SDS011;33558;50.922;14.068;2022-11-21T00:15:09;56.03;;;26.07;;
47796;SDS011;33558;50.922;14.068;2022-11-21T00:17:36;51.40;;;24.93;;
47796;SDS011;33558;50.922;14.068;2022-11-21T00:20:04;54.50;;;26.10;;
47796;SDS011;33558;50.922;14.068;2022-11-21T00:22:31;51.10;;;23.80;;
47796;SDS011;33558;50.922;14.068;2022-11-21T00:24:58;52.50;;;25.70;;
47796;SDS011;33558;50.922;14.068;2022-11-21T00:27:25;54.17;;;25.07;;
47796;SDS011;33558;50.922;14.068;2022-11-21T00:29:52;51.37;;;24.30;;
47796;SDS011;33558;50.922;14.068;2022-11-21T00:32:20;58.43;;;25.27;;
47796;SDS011;33558;50.922;14.068;2022-11-21T00:34:47;56.57;;;25.30;;
47796;SDS011;33558;50.922;14.068;2022-11-21T00:37:14;52.27;;;23.90;;
47796;SDS011;33558;50.922;14.068;2022-11-21T00:39:41;49.70;;;23.67;;
47796;SDS011;33558;50.922;14.068;2022-11-21T00:42:08;50.30;;;25.37;;
47796;SDS011;33558;50.922;14.068;2022-11-21T00:44:35;50.53;;;23.37;;
47796;SDS011;33558;50.922;14.068;2022-11-21T00:47:02;54.03;;;24.87;;
47796;SDS011;33558;50.922;14.068;2022-11-21T00:49:31;52.70;;;24.80;;
47796;SDS011;33558;50.922;14.068;2022-11-21T00:51:58;51.97;;;23.87;;
47796;SDS011;33558;50.922;14.068;2022-11-21T00:54:25;48.40;;;24.30;;
47796;SDS011;33558;50.922;14.068;2022-11-21T00:56:52;50.17;;;23.20;;
47796;SDS011;33558;50.922;14.068;2022-11-21T00:59:19;57.87;;;26.60;;
47796;SDS011;33558;50.922;14.068;2022-11-21T01:01:46;54.70;;;24.63;;
47796;SDS011;33558;50.922;14.068;2022-11-21T01:04:13;48.93;;;24.27;;
47796;SDS011;33558;50.922;14.068;2022-11-21T01:06:41;54.20;;;24.93;;
47796;SDS011;33558;50.922;14.068;2022-11-21T01:09:09;46.20;;;22.07;;
47796;SDS011;33558;50.922;14.068;2022-11-21T01:11:36;54.37;;;23.50;;
47796;SDS011;33558;50.922;14.068;2022-11-21T01:14:03;53.07;;;23.27;;
47796;SDS011;33558;50.922;14.068;2022-11-21T01:16:30;52.90;;;24.37;;
47796;SDS011;33558;50.922;14.068;2022-11-21T01:18:57;50.03;;;24.50;;
47796;SDS011;33558;50.922;14.068;2022-11-21T01:21:24;57.80;;;26.87;;
47796;SDS011;33558;50.922;14.068;2022-11-21T01:23:55;54.20;;;24.40;;
47796;SDS011;33558;50.922;14.068;2022-11-21T01:26:24;51.50;;;23.87;;
47796;SDS011;33558;50.922;14.068;2022-11-21T01:28:52;52.07;;;23.67;;
47796;SDS011;33558;50.922;14.068;2022-11-21T01:31:20;49.00;;;22.33;;
47796;SDS011;33558;50.922;14.068;2022-11-21T01:33:49;46.90;;;20.97;;
47796;SDS011;33558;50.922;14.068;2022-11-21T01:36:17;49.77;;;22.40;;
47796;SDS011;33558;50.922;14.068;2022-11-21T01:38:45;48.93;;;23.30;;
47796;SDS011;33558;50.922;14.068;2022-11-21T01:41:16;52.13;;;24.13;;
47796;SDS011;33558;50.922;14.068;2022-11-21T01:43:45;46.33;;;22.33;;
47796;SDS011;33558;50.922;14.068;2022-11-21T01:46:13;47.30;;;23.33;;
47796;SDS011;33558;50.922;14.068;2022-11-21T01:48:42;50.00;;;23.07;;
47796;SDS011;33558;50.922;14.068;2022-11-21T01:51:12;49.17;;;22.93;;
47796;SDS011;33558;50.922;14.068;2022-11-21T01:53:42;42.20;;;22.23;;
47796;SDS011;33558;50.922;14.068;2022-11-21T01:56:12;50.57;;;23.07;;
47796;SDS011;33558;50.922;14.068;2022-11-21T01:58:41;50.57;;;22.77;;
47796;SDS011;33558;50.922;14.068;2022-11-21T02:01:09;40.73;;;21.03;;
47796;SDS011;33558;50.922;14.068;2022-11-21T02:03:38;41.70;;;22.30;;
47796;SDS011;33558;50.922;14.068;2022-11-21T02:06:06;49.10;;;22.87;;
47796;SDS011;33558;50.922;14.068;2022-11-21T02:08:34;48.30;;;23.10;;
47796;SDS011;33558;50.922;14.068;2022-11-21T02:11:05;51.67;;;25.03;;
47796;SDS011;33558;50.922;14.068;2022-11-21T02:13:37;47.23;;;22.70;;
47796;SDS011;33558;50.922;14.068;2022-11-21T02:16:04;48.43;;;23.60;;
47796;SDS011;33558;50.922;14.068;2022-11-21T02:18:32;45.50;;;21.83;;
47796;SDS011;33558;50.922;14.068;2022-11-21T02:21:00;51.63;;;24.23;;
47796;SDS011;33558;50.922;14.068;2022-11-21T02:23:34;51.40;;;24.03;;
47796;SDS011;33558;50.922;14.068;2022-11-21T02:26:07;50.50;;;23.00;;
47796;SDS011;33558;50.922;14.068;2022-11-21T02:28:34;44.57;;;21.40;;
47796;SDS011;33558;50.922;14.068;2022-11-21T02:31:01;47.17;;;21.60;;
47796;SDS011;33558;50.922;14.068;2022-11-21T02:33:28;45.47;;;21.57;;
47796;SDS011;33558;50.922;14.068;2022-11-21T02:35:56;49.20;;;22.97;;
47796;SDS011;33558;50.922;14.068;2022-11-21T02:38:24;46.73;;;23.07;;
47796;SDS011;33558;50.922;14.068;2022-11-21T02:40:54;51.33;;;22.80;;
47796;SDS011;33558;50.922;14.068;2022-11-21T02:43:28;51.80;;;23.97;;
47796;SDS011;33558;50.922;14.068;2022-11-21T02:45:56;46.03;;;21.87;;
47796;SDS011;33558;50.922;14.068;2022-11-21T02:48:24;42.77;;;20.73;;
47796;SDS011;33558;50.922;14.068;2022-11-21T02:50:51;43.93;;;21.90;;
47796;SDS011;33558;50.922;14.068;2022-11-21T02:53:18;43.77;;;22.83;;
47796;SDS011;33558;50.922;14.068;2022-11-21T02:55:46;46.13;;;22.53;;
47796;SDS011;33558;50.922;14.068;2022-11-21T02:58:12;44.87;;;23.20;;
47796;SDS011;33558;50.922;14.068;2022-11-21T03:00:41;50.03;;;22.97;;
47796;SDS011;33558;50.922;14.068;2022-11-21T03:03:08;46.87;;;22.57;;
47796;SDS011;33558;50.922;14.068;2022-11-21T03:05:36;42.27;;;20.90;;
47796;SDS011;33558;50.922;14.068;2022-11-21T03:08:03;46.33;;;22.97;;
47796;SDS011;33558;50.922;14.068;2022-11-21T03:10:31;41.37;;;21.33;;
47796;SDS011;33558;50.922;14.068;2022-11-21T03:12:58;39.63;;;20.03;;
47796;SDS011;33558;50.922;14.068;2022-11-21T03:15:29;46.23;;;20.87;;
47796;SDS011;33558;50.922;14.068;2022-11-21T03:17:58;41.70;;;19.27;;
47796;SDS011;33558;50.922;14.068;2022-11-21T03:20:27;42.70;;;21.20;;
47796;SDS011;33558;50.922;14.068;2022-11-21T03:22:54;44.03;;;21.37;;
47796;SDS011;33558;50.922;14.068;2022-11-21T03:25:21;35.30;;;19.17;;
47796;SDS011;33558;50.922;14.068;2022-11-21T03:27:49;41.23;;;20.80;;
47796;SDS011;33558;50.922;14.068;2022-11-21T03:30:17;44.70;;;22.73;;
47796;SDS011;33558;50.922;14.068;2022-11-21T03:32:45;40.63;;;20.40;;
47796;SDS011;33558;50.922;14.068;2022-11-21T03:35:13;42.67;;;20.83;;
47796;SDS011;33558;50.922;14.068;2022-11-21T03:37:40;42.00;;;21.37;;
47796;SDS011;33558;50.922;14.068;2022-11-21T03:40:08;39.40;;;20.10;;
47796;SDS011;33558;50.922;14.068;2022-11-21T03:42:36;41.80;;;19.33;;
47796;SDS011;33558;50.922;14.068;2022-11-21T03:45:03;39.27;;;20.37;;
47796;SDS011;33558;50.922;14.068;2022-11-21T03:47:31;39.20;;;18.93;;
47796;SDS011;33558;50.922;14.068;2022-11-21T03:49:58;37.87;;;19.63;;
47796;SDS011;33558;50.922;14.068;2022-11-21T03:52:26;36.00;;;20.20;;
47796;SDS011;33558;50.922;14.068;2022-11-21T03:54:53;42.50;;;20.13;;
47796;SDS011;33558;50.922;14.068;2022-11-21T03:57:20;37.13;;;19.30;;
47796;SDS011;33558;50.922;14.068;2022-11-21T03:59:47;35.63;;;19.10;;
47796;SDS011;33558;50.922;14.068;2022-11-21T04:02:14;37.43;;;19.70;;
47796;SDS011;33558;50.922;14.068;2022-11-21T04:04:42;33.67;;;17.97;;
47796;SDS011;33558;50.922;14.068;2022-11-21T04:07:09;38.87;;;19.70;;
47796;SDS011;33558;50.922;14.068;2022-11-21T04:09:37;37.77;;;18.80;;
47796;SDS011;33558;50.922;14.068;2022-11-21T04:12:04;34.87;;;18.90;;
47796;SDS011;33558;50.922;14.068;2022-11-21T04:14:32;37.63;;;18.83;;
47796;SDS011;33558;50.922;14.068;2022-11-21T04:16:59;36.27;;;19.87;;
47796;SDS011;33558;50.922;14.068;2022-11-21T04:19:26;34.53;;;16.93;;
47796;SDS011;33558;50.922;14.068;2022-11-21T04:21:53;41.70;;;20.57;;
47796;SDS011;33558;50.922;14.068;2022-11-21T04:24:20;33.43;;;19.07;;
47796;SDS011;33558;50.922;14.068;2022-11-21T04:26:48;34.47;;;18.77;;
47796;SDS011;33558;50.922;14.068;2022-11-21T04:29:15;36.97;;;18.90;;
47796;SDS011;33558;50.922;14.068;2022-11-21T04:31:42;33.37;;;18.40;;
47796;SDS011;33558;50.922;14.068;2022-11-21T04:34:09;32.47;;;18.20;;
47796;SDS011;33558;50.922;14.068;2022-11-21T04:36:36;33.40;;;17.20;;
47796;SDS011;33558;50.922;14.068;2022-11-21T04:39:03;35.13;;;17.63;;
47796;SDS011;33558;50.922;14.068;2022-11-21T04:41:30;33.03;;;18.53;;
47796;SDS011;33558;50.922;14.068;2022-11-21T04:43:59;34.13;;;17.00;;
47796;SDS011;33558;50.922;14.068;2022-11-21T04:46:26;33.40;;;17.80;;
47796;SDS011;33558;50.922;14.068;2022-11-21T04:48:53;32.50;;;18.33;;
47796;SDS011;33558;50.922;14.068;2022-11-21T04:51:19;32.87;;;17.33;;
47796;SDS011;33558;50.922;14.068;2022-11-21T04:53:47;33.87;;;17.03;;
47796;SDS011;33558;50.922;14.068;2022-11-21T04:56:14;32.70;;;17.80;;
47796;SDS011;33558;50.922;14.068;2022-11-21T04:58:41;32.97;;;18.27;;
47796;SDS011;33558;50.922;14.068;2022-11-21T05:01:10;34.17;;;18.27;;
47796;SDS011;33558;50.922;14.068;2022-11-21T05:03:37;28.40;;;16.33;;
47796;SDS011;33558;50.922;14.068;2022-11-21T05:06:04;32.03;;;17.90;;
47796;SDS011;33558;50.922;14.068;2022-11-21T05:08:31;27.10;;;14.60;;
47796;SDS011;33558;50.922;14.068;2022-11-21T05:10:58;30.60;;;16.47;;
47796;SDS011;33558;50.922;14.068;2022-11-21T05:13:43;33.00;;;16.47;;
47796;SDS011;33558;50.922;14.068;2022-11-21T05:16:11;30.13;;;15.73;;
47796;SDS011;33558;50.922;14.068;2022-11-21T05:18:39;32.33;;;17.40;;
47796;SDS011;33558;50.922;14.068;2022-11-21T05:21:06;31.73;;;17.07;;
47796;SDS011;33558;50.922;14.068;2022-11-21T05:23:32;31.23;;;16.23;;
47796;SDS011;33558;50.922;14.068;2022-11-21T05:26:00;29.67;;;16.67;;
47796;SDS011;33558;50.922;14.068;2022-11-21T05:28:27;28.17;;;15.93;;
47796;SDS011;33558;50.922;14.068;2022-11-21T05:30:54;31.33;;;17.47;;
47796;SDS011;33558;50.922;14.068;2022-11-21T05:33:22;29.47;;;16.33;;
47796;SDS011;33558;50.922;14.068;2022-11-21T05:35:49;30.47;;;17.20;;
47796;SDS011;33558;50.922;14.068;2022-11-21T05:38:16;30.90;;;17.47;;
47796;SDS011;33558;50.922;14.068;2022-11-21T05:40:43;29.40;;;15.53;;
47796;SDS011;33558;50.922;14.068;2022-11-21T05:43:10;29.83;;;15.83;;
47796;SDS011;33558;50.922;14.068;2022-11-21T05:45:55;28.57;;;14.50;;
47796;SDS011;33558;50.922;14.068;2022-11-21T05:48:23;32.63;;;16.33;;
47796;SDS011;33558;50.922;14.068;2022-11-21T05:50:50;30.77;;;15.57;;
47796;SDS011;33558;50.922;14.068;2022-11-21T05:53:18;28.87;;;15.13;;
47796;SDS011;33558;50.922;14.068;2022-11-21T05:55:46;28.00;;;15.33;;
47796;SDS011;33558;50.922;14.068;2022-11-21T05:58:13;29.03;;;15.33;;
47796;SDS011;33558;50.922;14.068;2022-11-21T06:00:40;25.90;;;15.23;;
47796;SDS011;33558;50.922;14.068;2022-11-21T06:03:08;27.97;;;15.57;;
47796;SDS011;33558;50.922;14.068;2022-11-21T06:05:58;29.47;;;16.03;;
47796;SDS011;33558;50.922;14.068;2022-11-21T06:08:26;28.00;;;15.77;;
47796;SDS011;33558;50.922;14.068;2022-11-21T06:10:54;31.53;;;16.20;;
47796;SDS011;33558;50.922;14.068;2022-11-21T06:13:21;29.83;;;16.70;;
47796;SDS011;33558;50.922;14.068;2022-11-21T06:15:48;27.37;;;15.27;;
47796;SDS011;33558;50.922;14.068;2022-11-21T06:18:17;27.63;;;15.10;;
47796;SDS011;33558;50.922;14.068;2022-11-21T06:20:44;29.57;;;14.90;;
47796;SDS011;33558;50.922;14.068;2022-11-21T06:23:12;28.13;;;15.73;;
47796;SDS011;33558;50.922;14.068;2022-11-21T06:25:40;27.60;;;15.13;;
47796;SDS011;33558;50.922;14.068;2022-11-21T06:28:07;27.37;;;15.30;;
47796;SDS011;33558;50.922;14.068;2022-11-21T06:30:34;25.77;;;14.93;;
47796;SDS011;33558;50.922;14.068;2022-11-21T06:33:02;26.90;;;14.83;;
47796;SDS011;33558;50.922;14.068;2022-11-21T06:35:30;28.87;;;15.50;;
47796;SDS011;33558;50.922;14.068;2022-11-21T06:37:57;28.07;;;15.27;;
47796;SDS011;33558;50.922;14.068;2022-11-21T06:40:25;26.33;;;14.90;;
47796;SDS011;33558;50.922;14.068;2022-11-21T06:42:52;29.07;;;16.07;;
47796;SDS011;33558;50.922;14.068;2022-11-21T06:45:18;27.73;;;14.50;;
47796;SDS011;33558;50.922;14.068;2022-11-21T06:47:45;32.27;;;16.23;;
47796;SDS011;33558;50.922;14.068;2022-11-21T06:50:12;29.83;;;16.67;;
47796;SDS011;33558;50.922;14.068;2022-11-21T06:52:39;29.97;;;15.10;;
47796;SDS011;33558;50.922;14.068;2022-11-21T06:55:06;27.43;;;15.93;;
47796;SDS011;33558;50.922;14.068;2022-11-21T06:57:35;26.80;;;15.17;;
47796;SDS011;33558;50.922;14.068;2022-11-21T07:00:02;25.33;;;14.83;;
47796;SDS011;33558;50.922;14.068;2022-11-21T07:02:29;27.20;;;14.83;;
47796;SDS011;33558;50.922;14.068;2022-11-21T07:04:56;27.87;;;15.40;;
47796;SDS011;33558;50.922;14.068;2022-11-21T07:07:22;30.90;;;17.20;;
47796;SDS011;33558;50.922;14.068;2022-11-21T07:09:49;27.77;;;17.00;;
47796;SDS011;33558;50.922;14.068;2022-11-21T07:12:16;33.07;;;18.43;;
47796;SDS011;33558;50.922;14.068;2022-11-21T07:15:02;28.47;;;17.00;;
47796;SDS011;33558;50.922;14.068;2022-11-21T07:17:29;30.80;;;16.40;;
47796;SDS011;33558;50.922;14.068;2022-11-21T07:19:55;28.97;;;16.67;;
47796;SDS011;33558;50.922;14.068;2022-11-21T07:22:23;28.43;;;15.27;;
47796;SDS011;33558;50.922;14.068;2022-11-21T07:24:50;31.97;;;17.70;;
47796;SDS011;33558;50.922;14.068;2022-11-21T07:27:17;30.33;;;17.47;;
47796;SDS011;33558;50.922;14.068;2022-11-21T07:29:43;28.10;;;16.30;;
47796;SDS011;33558;50.922;14.068;2022-11-21T07:32:12;28.87;;;16.53;;
47796;SDS011;33558;50.922;14.068;2022-11-21T07:34:39;31.10;;;16.93;;
47796;SDS011;33558;50.922;14.068;2022-11-21T07:37:06;28.77;;;16.97;;
47796;SDS011;33558;50.922;14.068;2022-11-21T07:39:32;27.00;;;15.50;;
47796;SDS011;33558;50.922;14.068;2022-11-21T07:41:59;31.60;;;16.40;;
47796;SDS011;33558;50.922;14.068;2022-11-21T07:44:26;22.27;;;13.13;;
47796;SDS011;33558;50.922;14.068;2022-11-21T07:46:53;21.43;;;12.20;;
47796;SDS011;33558;50.922;14.068;2022-11-21T07:49:21;17.10;;;10.17;;
47796;SDS011;33558;50.922;14.068;2022-11-21T07:51:48;21.93;;;11.20;;
47796;SDS011;33558;50.922;14.068;2022-11-21T07:54:15;18.50;;;9.93;;
47796;SDS011;33558;50.922;14.068;2022-11-21T07:56:42;19.53;;;10.70;;
47796;SDS011;33558;50.922;14.068;2022-11-21T07:59:08;14.87;;;9.13;;
47796;SDS011;33558;50.922;14.068;2022-11-21T08:01:35;16.60;;;9.53;;
47796;SDS011;33558;50.922;14.068;2022-11-21T08:04:02;15.83;;;8.80;;
47796;SDS011;33558;50.922;14.068;2022-11-21T08:06:30;14.43;;;9.00;;
47796;SDS011;33558;50.922;14.068;2022-11-21T08:08:57;17.53;;;10.33;;
47796;SDS011;33558;50.922;14.068;2022-11-21T08:11:24;17.47;;;10.60;;
47796;SDS011;33558;50.922;14.068;2022-11-21T08:13:51;13.73;;;9.70;;
47796;SDS011;33558;50.922;14.068;2022-11-21T08:16:17;14.73;;;9.37;;
47796;SDS011;33558;50.922;14.068;2022-11-21T08:18:44;17.07;;;9.37;;
47796;SDS011;33558;50.922;14.068;2022-11-21T08:21:11;17.73;;;9.10;;
47796;SDS011;33558;50.922;14.068;2022-11-21T08:23:39;14.47;;;8.77;;
47796;SDS011;33558;50.922;14.068;2022-11-21T08:26:07;14.33;;;9.43;;
47796;SDS011;33558;50.922;14.068;2022-11-21T08:28:34;13.93;;;8.57;;
47796;SDS011;33558;50.922;14.068;2022-11-21T08:31:02;14.23;;;8.80;;
47796;SDS011;33558;50.922;14.068;2022-11-21T08:33:29;15.43;;;9.13;;
47796;SDS011;33558;50.922;14.068;2022-11-21T08:35:56;14.63;;;9.17;;
47796;SDS011;33558;50.922;14.068;2022-11-21T08:38:23;17.13;;;10.93;;
47796;SDS011;33558;50.922;14.068;2022-11-21T08:40:51;19.17;;;11.30;;
47796;SDS011;33558;50.922;14.068;2022-11-21T08:43:32;21.10;;;10.90;;
47796;SDS011;33558;50.922;14.068;2022-11-21T08:45:59;24.70;;;13.40;;
47796;SDS011;33558;50.922;14.068;2022-11-21T08:48:25;22.40;;;13.53;;
47796;SDS011;33558;50.922;14.068;2022-11-21T08:50:52;20.07;;;12.37;;
47796;SDS011;33558;50.922;14.068;2022-11-21T08:53:19;25.27;;;13.80;;
47796;SDS011;33558;50.922;14.068;2022-11-21T08:55:45;26.40;;;16.20;;
47796;SDS011;33558;50.922;14.068;2022-11-21T08:58:14;26.90;;;15.13;;
47796;SDS011;33558;50.922;14.068;2022-11-21T09:00:40;27.27;;;15.13;;
47796;SDS011;33558;50.922;14.068;2022-11-21T09:03:07;28.27;;;16.70;;
47796;SDS011;33558;50.922;14.068;2022-11-21T09:05:34;27.57;;;14.23;;
47796;SDS011;33558;50.922;14.068;2022-11-21T09:08:01;27.20;;;15.87;;
47796;SDS011;33558;50.922;14.068;2022-11-21T09:10:27;23.47;;;13.23;;
47796;SDS011;33558;50.922;14.068;2022-11-21T09:12:56;23.57;;;13.67;;
47796;SDS011;33558;50.922;14.068;2022-11-21T09:15:24;24.57;;;13.40;;
47796;SDS011;33558;50.922;14.068;2022-11-21T09:18:20;20.20;;;12.73;;
47796;SDS011;33558;50.922;14.068;2022-11-21T09:20:47;20.50;;;11.97;;
47796;SDS011;33558;50.922;14.068;2022-11-21T09:23:14;20.37;;;13.00;;
47796;SDS011;33558;50.922;14.068;2022-11-21T09:25:42;23.73;;;13.07;;
47796;SDS011;33558;50.922;14.068;2022-11-21T09:28:09;22.23;;;11.67;;
47796;SDS011;33558;50.922;14.068;2022-11-21T09:30:39;22.47;;;11.93;;
47796;SDS011;33558;50.922;14.068;2022-11-21T09:33:06;22.37;;;11.60;;
47796;SDS011;33558;50.922;14.068;2022-11-21T09:35:35;23.87;;;12.10;;
47796;SDS011;33558;50.922;14.068;2022-11-21T09:38:02;22.17;;;12.77;;
47796;SDS011;33558;50.922;14.068;2022-11-21T09:40:29;20.43;;;12.17;;
47796;SDS011;33558;50.922;14.068;2022-11-21T09:43:03;20.20;;;11.60;;
47796;SDS011;33558;50.922;14.068;2022-11-21T09:45:35;23.67;;;11.70;;
47796;SDS011;33558;50.922;14.068;2022-11-21T09:48:07;24.70;;;13.70;;
47796;SDS011;33558;50.922;14.068;2022-11-21T09:50:36;23.37;;;12.97;;
47796;SDS011;33558;50.922;14.068;2022-11-21T09:53:05;22.27;;;13.03;;
47796;SDS011;33558;50.922;14.068;2022-11-21T09:55:39;26.07;;;13.93;;
47796;SDS011;33558;50.922;14.068;2022-11-21T09:58:13;24.93;;;13.60;;
47796;SDS011;33558;50.922;14.068;2022-11-21T10:00:43;24.58;;;13.32;;
47796;SDS011;33558;50.922;14.068;2022-11-21T10:03:11;22.87;;;13.10;;
47796;SDS011;33558;50.922;14.068;2022-11-21T10:05:40;23.43;;;13.50;;
47796;SDS011;33558;50.922;14.068;2022-11-21T10:08:13;25.47;;;14.77;;
47796;SDS011;33558;50.922;14.068;2022-11-21T10:10:47;27.50;;;14.60;;
47796;SDS011;33558;50.922;14.068;2022-11-21T10:15:53;28.33;;;15.00;;
47796;SDS011;33558;50.922;14.068;2022-11-21T10:21:24;24.60;;;12.73;;
47796;SDS011;33558;50.922;14.068;2022-11-21T10:24:04;24.87;;;13.37;;
47796;SDS011;33558;50.922;14.068;2022-11-21T10:26:39;27.47;;;14.80;;
47796;SDS011;33558;50.922;14.068;2022-11-21T10:29:09;25.57;;;13.03;;
47796;SDS011;33558;50.922;14.068;2022-11-21T10:31:40;25.80;;;14.00;;
47796;SDS011;33558;50.922;14.068;2022-11-21T10:34:10;32.60;;;16.57;;
47796;SDS011;33558;50.922;14.068;2022-11-21T10:36:39;32.80;;;17.97;;
47796;SDS011;33558;50.922;14.068;2022-11-21T10:39:10;27.60;;;15.50;;
47796;SDS011;33558;50.922;14.068;2022-11-21T10:41:41;28.87;;;15.30;;
47796;SDS011;33558;50.922;14.068;2022-11-21T10:44:16;29.73;;;15.43;;
47796;SDS011;33558;50.922;14.068;2022-11-21T10:47:12;32.73;;;17.10;;
47796;SDS011;33558;50.922;14.068;2022-11-21T10:49:42;33.30;;;16.47;;
47796;SDS011;33558;50.922;14.068;2022-11-21T10:52:12;33.60;;;16.57;;
47796;SDS011;33558;50.922;14.068;2022-11-21T10:57:36;32.13;;;16.13;;
47796;SDS011;33558;50.922;14.068;2022-11-21T11:00:13;30.53;;;15.67;;
47796;SDS011;33558;50.922;14.068;2022-11-21T11:03:00;33.23;;;16.90;;
47796;SDS011;33558;50.922;14.068;2022-11-21T11:05:31;36.50;;;16.67;;
47796;SDS011;33558;50.922;14.068;2022-11-21T11:08:00;38.10;;;18.80;;
47796;SDS011;33558;50.922;14.068;2022-11-21T11:10:29;35.97;;;17.70;;
47796;SDS011;33558;50.922;14.068;2022-11-21T11:12:56;36.23;;;18.20;;
47796;SDS011;33558;50.922;14.068;2022-11-21T11:15:51;39.37;;;19.13;;
47796;SDS011;33558;50.922;14.068;2022-11-21T11:18:20;37.53;;;17.83;;
47796;SDS011;33558;50.922;14.068;2022-11-21T11:20:49;37.80;;;19.23;;
47796;SDS011;33558;50.922;14.068;2022-11-21T11:23:22;36.90;;;18.23;;
47796;SDS011;33558;50.922;14.068;2022-11-21T11:25:51;38.63;;;17.90;;
47796;SDS011;33558;50.922;14.068;2022-11-21T11:28:19;35.00;;;17.67;;
47796;SDS011;33558;50.922;14.068;2022-11-21T11:30:48;35.83;;;18.43;;
47796;SDS011;33558;50.922;14.068;2022-11-21T11:33:34;42.20;;;20.97;;
47796;SDS011;33558;50.922;14.068;2022-11-21T11:36:10;38.90;;;17.37;;
47796;SDS011;33558;50.922;14.068;2022-11-21T11:38:40;36.10;;;16.97;;
47796;SDS011;33558;50.922;14.068;2022-11-21T11:44:30;34.30;;;16.97;;
47796;SDS011;33558;50.922;14.068;2022-11-21T11:47:20;36.83;;;17.80;;
47796;SDS011;33558;50.922;14.068;2022-11-21T11:49:58;32.90;;;16.93;;
47796;SDS011;33558;50.922;14.068;2022-11-21T11:52:38;34.97;;;17.43;;
47796;SDS011;33558;50.922;14.068;2022-11-21T11:55:13;34.47;;;18.07;;
47796;SDS011;33558;50.922;14.068;2022-11-21T11:57:41;36.10;;;17.30;;
47796;SDS011;33558;50.922;14.068;2022-11-21T12:00:14;32.83;;;16.47;;
47796;SDS011;33558;50.922;14.068;2022-11-21T12:02:50;34.53;;;17.37;;
47796;SDS011;33558;50.922;14.068;2022-11-21T12:05:22;34.90;;;16.73;;
47796;SDS011;33558;50.922;14.068;2022-11-21T12:07:57;33.47;;;17.17;;
47796;SDS011;33558;50.922;14.068;2022-11-21T12:10:31;34.07;;;16.07;;
47796;SDS011;33558;50.922;14.068;2022-11-21T12:13:01;32.13;;;15.80;;
47796;SDS011;33558;50.922;14.068;2022-11-21T12:15:30;29.93;;;14.67;;
47796;SDS011;33558;50.922;14.068;2022-11-21T12:18:19;30.80;;;14.83;;
47796;SDS011;33558;50.922;14.068;2022-11-21T12:20:51;29.40;;;14.83;;
47796;SDS011;33558;50.922;14.068;2022-11-21T12:23:22;29.90;;;15.47;;
47796;SDS011;33558;50.922;14.068;2022-11-21T12:25:51;31.10;;;16.13;;
47796;SDS011;33558;50.922;14.068;2022-11-21T12:28:25;29.80;;;16.30;;
47796;SDS011;33558;50.922;14.068;2022-11-21T12:31:01;26.70;;;14.27;;
47796;SDS011;33558;50.922;14.068;2022-11-21T12:33:31;26.33;;;13.40;;
47796;SDS011;33558;50.922;14.068;2022-11-21T12:36:19;30.17;;;15.33;;
47796;SDS011;33558;50.922;14.068;2022-11-21T12:42:08;29.63;;;14.70;;
47796;SDS011;33558;50.922;14.068;2022-11-21T12:45:00;28.53;;;14.70;;
47796;SDS011;33558;50.922;14.068;2022-11-21T12:47:40;29.33;;;15.47;;
47796;SDS011;33558;50.922;14.068;2022-11-21T12:51:07;28.40;;;14.53;;
47796;SDS011;33558;50.922;14.068;2022-11-21T12:54:01;30.67;;;15.40;;
47796;SDS011;33558;50.922;14.068;2022-11-21T12:56:53;35.50;;;16.40;;
47796;SDS011;33558;50.922;14.068;2022-11-21T12:59:24;30.80;;;16.07;;
47796;SDS011;33558;50.922;14.068;2022-11-21T13:01:53;33.13;;;16.90;;
47796;SDS011;33558;50.922;14.068;2022-11-21T13:04:27;27.92;;;14.32;;
47796;SDS011;33558;50.922;14.068;2022-11-21T13:06:56;31.17;;;15.33;;
47796;SDS011;33558;50.922;14.068;2022-11-21T13:09:24;32.80;;;16.10;;
47796;SDS011;33558;50.922;14.068;2022-11-21T13:11:55;28.43;;;15.13;;
47796;SDS011;33558;50.922;14.068;2022-11-21T13:14:30;30.13;;;16.30;;
47796;SDS011;33558;50.922;14.068;2022-11-21T13:17:09;30.77;;;15.20;;
47796;SDS011;33558;50.922;14.068;2022-11-21T13:19:42;29.40;;;14.47;;
47796;SDS011;33558;50.922;14.068;2022-11-21T13:25:34;31.87;;;14.30;;
47796;SDS011;33558;50.922;14.068;2022-11-21T13:30:58;29.83;;;15.50;;
47796;SDS011;33558;50.922;14.068;2022-11-21T13:36:09;30.63;;;15.80;;
47796;SDS011;33558;50.922;14.068;2022-11-21T13:44:45;27.70;;;14.97;;
47796;SDS011;33558;50.922;14.068;2022-11-21T13:50:15;27.23;;;14.37;;
47796;SDS011;33558;50.922;14.068;2022-11-21T13:52:52;28.83;;;14.80;;
47796;SDS011;33558;50.922;14.068;2022-11-21T13:55:35;28.73;;;15.07;;
47796;SDS011;33558;50.922;14.068;2022-11-21T13:58:11;26.93;;;15.33;;
47796;SDS011;33558;50.922;14.068;2022-11-21T14:06:04;28.07;;;15.27;;
47796;SDS011;33558;50.922;14.068;2022-11-21T14:09:03;30.17;;;16.33;;
47796;SDS011;33558;50.922;14.068;2022-11-21T14:11:43;28.33;;;15.27;;
47796;SDS011;33558;50.922;14.068;2022-11-21T14:14:22;31.03;;;15.00;;
47796;SDS011;33558;50.922;14.068;2022-11-21T14:16:51;31.10;;;15.60;;
47796;SDS011;33558;50.922;14.068;2022-11-21T14:19:20;26.70;;;15.13;;
47796;SDS011;33558;50.922;14.068;2022-11-21T14:21:50;27.27;;;15.07;;
47796;SDS011;33558;50.922;14.068;2022-11-21T14:24:19;28.37;;;15.60;;
47796;SDS011;33558;50.922;14.068;2022-11-21T14:26:47;27.77;;;14.27;;
47796;SDS011;33558;50.922;14.068;2022-11-21T14:29:15;28.67;;;15.77;;
47796;SDS011;33558;50.922;14.068;2022-11-21T14:31:43;25.23;;;13.80;;
47796;SDS011;33558;50.922;14.068;2022-11-21T14:36:39;30.50;;;16.97;;
47796;SDS011;33558;50.922;14.068;2022-11-21T14:39:13;31.10;;;16.23;;
47796;SDS011;33558;50.922;14.068;2022-11-21T14:41:42;29.83;;;16.30;;
47796;SDS011;33558;50.922;14.068;2022-11-21T14:44:17;31.43;;;16.40;;
47796;SDS011;33558;50.922;14.068;2022-11-21T14:46:45;30.70;;;15.67;;
47796;SDS011;33558;50.922;14.068;2022-11-21T14:49:17;28.77;;;15.13;;
47796;SDS011;33558;50.922;14.068;2022-11-21T14:51:49;26.65;;;14.93;;
47796;SDS011;33558;50.922;14.068;2022-11-21T15:05:28;28.90;;;14.57;;
47796;SDS011;33558;50.922;14.068;2022-11-21T15:08:11;27.67;;;14.50;;
47796;SDS011;33558;50.922;14.068;2022-11-21T15:11:01;28.77;;;15.30;;
47796;SDS011;33558;50.922;14.068;2022-11-21T15:13:52;29.87;;;14.37;;
47796;SDS011;33558;50.922;14.068;2022-11-21T15:16:21;33.57;;;16.13;;